Time;durP1;ratioP1;P1;durP2;ratioP2;P2;SDS_P1;SDS_P2;PMS_P1;PMS_P2;Temp;Humidity;BMP_temperature;BMP_pressure;BME280_temperature;BME280_humidity;BME280_pressure;Samples;Min_cycle;Max_cycle;Signal;HPM_P1;HPM_P2
2022/03/23 00:02:38;;;;;;;282.65;125.13;;;;;;;;;;6243952;28;20033;-65
2022/03/23 00:05:39;;;;;;;321.15;142.18;;;;;;;;;;6243877;28;20048;-65
2022/03/23 00:08:39;;;;;;;308.98;127.85;;;;;;;;;;6242612;28;20028;-65
2022/03/23 00:11:41;;;;;;;305.67;131.02;;;;;;;;;;6243984;28;20057;-65
2022/03/23 00:14:42;;;;;;;261.60;112.03;;;;;;;;;;6243280;28;20030;-65
2022/03/23 00:17:43;;;;;;;213.87;89.23;;;;;;;;;;6243702;28;20025;-65
2022/03/23 00:20:43;;;;;;;170.52;73.85;;;;;;;;;;6243341;28;20276;-65
2022/03/23 00:23:43;;;;;;;168.73;73.32;;;;;;;;;;6243156;28;20021;-65
2022/03/23 00:26:43;;;;;;;189.15;76.88;;;;;;;;;;6243070;28;20112;-65
2022/03/23 00:29:43;;;;;;;187.90;86.15;;;;;;;;;;6241279;28;20073;-65
2022/03/23 00:32:44;;;;;;;216.35;92.25;;;;;;;;;;6243158;28;20029;-64
2022/03/23 00:35:44;;;;;;;199.52;88.65;;;;;;;;;;6243220;28;20036;-64
2022/03/23 00:38:44;;;;;;;174.27;81.38;;;;;;;;;;6242772;28;20563;-64
2022/03/23 00:41:49;;;;;;;112.18;49.95;;;;;;;;;;6237725;28;20026;-64
2022/03/23 00:44:51;;;;;;;163.52;70.68;;;;;;;;;;6242715;28;20152;-64
2022/03/23 00:47:51;;;;;;;160.02;69.10;;;;;;;;;;6225316;28;20519;-64
2022/03/23 00:50:52;;;;;;;207.68;89.80;;;;;;;;;;6242971;28;20100;-64
2022/03/23 00:53:52;;;;;;;265.25;113.25;;;;;;;;;;6241962;28;20116;-64
2022/03/23 00:56:53;;;;;;;277.00;113.25;;;;;;;;;;6253335;28;20040;-64
2022/03/23 00:59:53;;;;;;;240.20;105.15;;;;;;;;;;6267073;28;20028;-64
2022/03/23 01:02:53;;;;;;;262.80;109.07;;;;;;;;;;6242348;28;20010;-64
2022/03/23 01:05:54;;;;;;;213.05;94.43;;;;;;;;;;6242651;28;20036;-64
2022/03/23 01:08:54;;;;;;;223.75;95.57;;;;;;;;;;6242568;28;20013;-64
2022/03/23 01:11:54;;;;;;;227.45;97.05;;;;;;;;;;6229682;28;20025;-64
2022/03/23 01:14:55;;;;;;;178.38;79.95;;;;;;;;;;6242441;28;20032;-63
2022/03/23 01:17:55;;;;;;;216.40;92.28;;;;;;;;;;6242894;28;20354;-63
2022/03/23 01:20:55;;;;;;;222.20;93.10;;;;;;;;;;6242581;28;20390;-63
2022/03/23 01:23:56;;;;;;;152.93;65.97;;;;;;;;;;6234893;28;20092;-63
2022/03/23 01:26:56;;;;;;;193.60;84.25;;;;;;;;;;6222965;28;20009;-63
2022/03/23 01:29:56;;;;;;;219.90;91.30;;;;;;;;;;6238502;28;20018;-64
2022/03/23 01:32:57;;;;;;;188.27;81.47;;;;;;;;;;6242244;28;20025;-63
2022/03/23 01:35:57;;;;;;;183.80;85.45;;;;;;;;;;6224661;28;20033;-63
2022/03/23 01:38:58;;;;;;;163.57;72.03;;;;;;;;;;6242316;28;20060;-63
2022/03/23 01:41:58;;;;;;;172.75;71.50;;;;;;;;;;6237771;28;20373;-63
2022/03/23 01:44:58;;;;;;;132.85;55.17;;;;;;;;;;6235801;28;20068;-63
2022/03/23 01:47:59;;;;;;;169.95;70.57;;;;;;;;;;6226419;28;20029;-63
2022/03/23 01:50:59;;;;;;;191.23;85.15;;;;;;;;;;6218923;28;20076;-63
2022/03/23 01:53:59;;;;;;;195.63;85.60;;;;;;;;;;6234466;28;20046;-63
2022/03/23 01:57:00;;;;;;;181.60;80.20;;;;;;;;;;6258133;28;20310;-63
2022/03/23 02:00:00;;;;;;;181.73;82.28;;;;;;;;;;6270146;28;20028;-63
2022/03/23 02:03:01;;;;;;;144.75;63.47;;;;;;;;;;6246047;28;20111;-63
2022/03/23 02:06:01;;;;;;;136.88;60.72;;;;;;;;;;6246327;28;20496;-63
2022/03/23 02:09:01;;;;;;;108.28;49.13;;;;;;;;;;6245991;28;20048;-63
2022/03/23 02:12:02;;;;;;;106.20;47.15;;;;;;;;;;6227447;28;20022;-63
2022/03/23 02:15:09;;;;;;;108.43;47.90;;;;;;;;;;6236122;28;20032;-63
2022/03/23 02:18:10;;;;;;;121.85;51.63;;;;;;;;;;6246760;28;20021;-63
2022/03/23 02:21:13;;;;;;;157.32;65.75;;;;;;;;;;6246364;28;20503;-63
2022/03/23 02:24:14;;;;;;;161.30;67.53;;;;;;;;;;6245355;28;20571;-63
2022/03/23 02:27:15;;;;;;;202.05;82.95;;;;;;;;;;6245756;28;20017;-63
2022/03/23 02:30:16;;;;;;;199.73;83.72;;;;;;;;;;6244110;28;20093;-63
2022/03/23 02:33:19;;;;;;;270.65;109.80;;;;;;;;;;6245851;28;20412;-63
2022/03/23 02:36:20;;;;;;;167.48;82.72;;;;;;;;;;6221356;28;20056;-63
2022/03/23 02:39:20;;;;;;;146.05;63.22;;;;;;;;;;6221395;28;20052;-63
2022/03/23 02:42:20;;;;;;;135.85;57.83;;;;;;;;;;6225679;28;20545;-63
2022/03/23 02:45:20;;;;;;;121.30;53.60;;;;;;;;;;6242508;28;20115;-63
2022/03/23 02:48:21;;;;;;;120.28;55.70;;;;;;;;;;6245615;28;20033;-63
2022/03/23 02:51:21;;;;;;;117.30;53.88;;;;;;;;;;6245615;28;20078;-63
2022/03/23 03:04:28;;;;;;;106.03;49.92;;;;;;;;;;6243834;28;20037;-64
2022/03/23 03:07:28;;;;;;;102.38;46.80;;;;;;;;;;6245010;28;20114;-64
2022/03/23 03:10:30;;;;;;;109.50;47.88;;;;;;;;;;6243968;28;20020;-64
2022/03/23 03:13:30;;;;;;;102.97;47.85;;;;;;;;;;6244591;28;20445;-64
2022/03/23 03:16:30;;;;;;;80.63;38.40;;;;;;;;;;6245039;28;20029;-64
2022/03/23 03:19:31;;;;;;;91.40;39.58;;;;;;;;;;6244835;28;20036;-65
2022/03/23 03:22:34;;;;;;;117.30;46.67;;;;;;;;;;6244752;28;20026;-64
2022/03/23 03:25:34;;;;;;;114.10;47.85;;;;;;;;;;6244359;28;20434;-64
2022/03/23 03:28:35;;;;;;;106.75;49.25;;;;;;;;;;6244680;28;20017;-65
2022/03/23 03:31:35;;;;;;;105.38;42.63;;;;;;;;;;6243433;28;20024;-64
2022/03/23 03:34:35;;;;;;;111.68;48.22;;;;;;;;;;6243976;28;20029;-64
2022/03/23 03:37:36;;;;;;;121.25;53.28;;;;;;;;;;6244927;28;20029;-64
2022/03/23 03:40:36;;;;;;;119.43;50.85;;;;;;;;;;6244047;28;20442;-64
2022/03/23 03:43:37;;;;;;;115.78;51.33;;;;;;;;;;6239081;28;20066;-64
2022/03/23 03:46:39;;;;;;;156.23;73.73;;;;;;;;;;6229011;28;20447;-64
2022/03/23 03:49:40;;;;;;;121.47;53.22;;;;;;;;;;6220104;28;20018;-64
2022/03/23 03:52:40;;;;;;;130.25;63.88;;;;;;;;;;6221615;28;20036;-64
2022/03/23 03:55:40;;;;;;;151.98;66.95;;;;;;;;;;6244340;28;20087;-64
2022/03/23 03:58:41;;;;;;;153.93;65.05;;;;;;;;;;6251209;28;20040;-64
2022/03/23 04:01:41;;;;;;;149.32;66.95;;;;;;;;;;6252893;28;20749;-64
2022/03/23 04:04:41;;;;;;;164.43;75.68;;;;;;;;;;6243457;28;20071;-64
2022/03/23 04:07:42;;;;;;;139.13;60.08;;;;;;;;;;6243533;28;20024;-65
2022/03/23 04:10:42;;;;;;;137.85;59.33;;;;;;;;;;6235242;28;20021;-65
2022/03/23 04:13:42;;;;;;;120.07;54.97;;;;;;;;;;6238997;28;20025;-65
2022/03/23 04:16:42;;;;;;;121.18;54.65;;;;;;;;;;6243720;28;20020;-65
2022/03/23 04:19:42;;;;;;;102.15;44.38;;;;;;;;;;6243522;28;20021;-65
2022/03/23 04:22:43;;;;;;;94.95;43.63;;;;;;;;;;6243033;28;20109;-65
2022/03/23 04:25:43;;;;;;;107.60;43.13;;;;;;;;;;6243148;28;20024;-65
2022/03/23 04:28:43;;;;;;;91.80;44.28;;;;;;;;;;6243244;28;20476;-65
2022/03/23 04:31:44;;;;;;;98.53;43.97;;;;;;;;;;6221781;28;20033;-65
2022/03/23 04:34:44;;;;;;;103.10;44.60;;;;;;;;;;6241875;28;20033;-65
2022/03/23 04:37:45;;;;;;;105.60;45.60;;;;;;;;;;6242126;28;20096;-65
2022/03/23 04:40:45;;;;;;;101.25;44.78;;;;;;;;;;6241925;28;20049;-65
2022/03/23 04:43:45;;;;;;;93.68;46.03;;;;;;;;;;6239090;28;20022;-65
2022/03/23 04:46:46;;;;;;;88.88;42.78;;;;;;;;;;6242711;28;20017;-65
2022/03/23 04:49:46;;;;;;;102.32;45.10;;;;;;;;;;6242915;28;20025;-65
2022/03/23 04:52:47;;;;;;;104.03;45.00;;;;;;;;;;6243083;28;20461;-65
2022/03/23 04:55:47;;;;;;;103.13;45.13;;;;;;;;;;6244045;28;20558;-65
2022/03/23 04:58:48;;;;;;;86.40;42.95;;;;;;;;;;6267671;28;20021;-65
2022/03/23 05:01:48;;;;;;;82.25;40.28;;;;;;;;;;6251225;28;20099;-65
2022/03/23 05:04:48;;;;;;;98.00;43.33;;;;;;;;;;6242003;28;20051;-65
2022/03/23 05:07:48;;;;;;;105.05;46.55;;;;;;;;;;6242027;28;20018;-65
2022/03/23 05:10:48;;;;;;;89.55;44.05;;;;;;;;;;6241947;28;20021;-65
2022/03/23 05:13:49;;;;;;;90.78;39.88;;;;;;;;;;6241947;28;20068;-65
2022/03/23 05:16:49;;;;;;;100.65;41.45;;;;;;;;;;6242274;28;20025;-65
2022/03/23 05:19:49;;;;;;;93.28;40.58;;;;;;;;;;6243085;28;20487;-65
2022/03/23 05:22:50;;;;;;;76.75;33.92;;;;;;;;;;6242707;28;20395;-65
2022/03/23 05:25:50;;;;;;;92.22;40.70;;;;;;;;;;6243218;28;20310;-65
2022/03/23 05:28:50;;;;;;;90.20;45.78;;;;;;;;;;6247478;28;20021;-65
2022/03/23 05:31:50;;;;;;;83.85;42.63;;;;;;;;;;6245383;28;20100;-65
2022/03/23 05:34:51;;;;;;;79.38;37.20;;;;;;;;;;6247176;28;20029;-65
2022/03/23 05:37:51;;;;;;;80.63;39.63;;;;;;;;;;6247387;28;20056;-64
2022/03/23 05:40:51;;;;;;;66.53;36.35;;;;;;;;;;6245719;28;20021;-64
2022/03/23 05:43:51;;;;;;;78.05;38.00;;;;;;;;;;6242864;28;20025;-64
2022/03/23 05:46:52;;;;;;;74.95;38.83;;;;;;;;;;6245308;28;20080;-64
2022/03/23 05:49:52;;;;;;;85.15;46.63;;;;;;;;;;6246997;28;20029;-64
2022/03/23 05:52:52;;;;;;;102.95;53.45;;;;;;;;;;6246563;28;20013;-65
2022/03/23 05:55:52;;;;;;;109.20;56.53;;;;;;;;;;6245514;28;20049;-65
2022/03/23 05:58:53;;;;;;;185.77;80.15;;;;;;;;;;6232239;28;20029;-65
2022/03/23 06:01:53;;;;;;;192.82;84.10;;;;;;;;;;6246937;28;20013;-65
2022/03/23 06:04:53;;;;;;;137.33;70.10;;;;;;;;;;6231388;28;20470;-65
2022/03/23 06:07:54;;;;;;;163.10;74.40;;;;;;;;;;6227960;28;20380;-65
2022/03/23 06:10:54;;;;;;;131.00;64.75;;;;;;;;;;6242226;28;20256;-66
2022/03/23 06:13:54;;;;;;;117.03;56.00;;;;;;;;;;6238156;28;20018;-66
2022/03/23 06:16:54;;;;;;;112.20;60.47;;;;;;;;;;6240849;28;20264;-65
2022/03/23 06:19:55;;;;;;;75.88;41.22;;;;;;;;;;6232099;28;20014;-66
2022/03/23 06:22:55;;;;;;;72.47;39.03;;;;;;;;;;6230061;28;20096;-65
2022/03/23 06:25:55;;;;;;;70.53;35.15;;;;;;;;;;6238190;28;20051;-66
2022/03/23 06:28:55;;;;;;;68.50;37.42;;;;;;;;;;6244691;28;20037;-66
2022/03/23 06:31:56;;;;;;;86.40;49.13;;;;;;;;;;6245773;28;20385;-66
2022/03/23 06:34:57;;;;;;;73.57;39.88;;;;;;;;;;6225837;28;20022;-66
2022/03/23 06:37:57;;;;;;;73.32;41.88;;;;;;;;;;6224327;28;20596;-66
2022/03/23 06:40:57;;;;;;;80.80;42.15;;;;;;;;;;6229945;28;20041;-66
2022/03/23 06:43:58;;;;;;;77.55;44.13;;;;;;;;;;6235692;28;20037;-66
2022/03/23 06:46:59;;;;;;;75.60;41.47;;;;;;;;;;6244643;28;20021;-66
2022/03/23 06:49:59;;;;;;;85.82;44.88;;;;;;;;;;6244939;28;20503;-66
2022/03/23 06:52:59;;;;;;;86.10;45.50;;;;;;;;;;6241301;28;21441;-66
2022/03/23 06:56:00;;;;;;;89.22;43.97;;;;;;;;;;6242574;28;20300;-66
2022/03/23 06:59:00;;;;;;;78.93;43.88;;;;;;;;;;6232213;28;20031;-66
2022/03/23 07:02:00;;;;;;;65.47;41.40;;;;;;;;;;6242388;28;20060;-66
2022/03/23 07:05:00;;;;;;;72.63;41.83;;;;;;;;;;6241572;28;20367;-66
2022/03/23 07:11:20;;;;;;;63.47;37.15;;;;;;;;;;6235232;28;20248;-66
2022/03/23 07:14:20;;;;;;;62.33;35.97;;;;;;;;;;6234038;28;20076;-66
2022/03/23 07:17:20;;;;;;;82.38;45.53;;;;;;;;;;6227171;28;20022;-66
2022/03/23 07:20:21;;;;;;;59.88;34.75;;;;;;;;;;6233344;28;20417;-66
2022/03/23 07:23:21;;;;;;;67.18;37.72;;;;;;;;;;6243818;28;20029;-66
2022/03/23 07:26:22;;;;;;;64.97;38.03;;;;;;;;;;6240019;28;20124;-66
2022/03/23 07:29:22;;;;;;;62.47;34.67;;;;;;;;;;6241052;28;20033;-66
2022/03/23 07:32:22;;;;;;;49.87;31.00;;;;;;;;;;6240927;28;20381;-66
2022/03/23 07:35:23;;;;;;;62.77;32.43;;;;;;;;;;6242565;28;20108;-67
2022/03/23 07:38:23;;;;;;;69.23;41.77;;;;;;;;;;6240052;28;20449;-67
2022/03/23 07:41:23;;;;;;;78.00;42.27;;;;;;;;;;6241147;28;20025;-67
2022/03/23 07:44:23;;;;;;;78.37;44.37;;;;;;;;;;6241611;28;20154;-67
2022/03/23 07:47:24;;;;;;;89.73;48.73;;;;;;;;;;6235626;28;20476;-67
2022/03/23 07:50:24;;;;;;;76.63;46.47;;;;;;;;;;6233611;28;20477;-67
2022/03/23 07:53:24;;;;;;;62.10;36.13;;;;;;;;;;6240343;28;20020;-67
2022/03/23 07:56:24;;;;;;;61.87;34.70;;;;;;;;;;6242288;28;20030;-67
2022/03/23 07:59:25;;;;;;;62.13;37.80;;;;;;;;;;6237183;28;20029;-66
2022/03/23 08:02:26;;;;;;;52.87;29.53;;;;;;;;;;6240875;28;20501;-66
2022/03/23 08:05:27;;;;;;;53.90;33.33;;;;;;;;;;6237581;28;20021;-67
2022/03/23 08:08:27;;;;;;;51.67;30.47;;;;;;;;;;6238439;28;21096;-67
2022/03/23 08:11:27;;;;;;;55.97;33.73;;;;;;;;;;6242247;28;20021;-66
2022/03/23 08:14:28;;;;;;;52.90;30.87;;;;;;;;;;6242812;28;20028;-67
2022/03/23 08:17:28;;;;;;;53.40;31.17;;;;;;;;;;6237234;28;20021;-67
2022/03/23 08:20:35;;;;;;;44.50;26.27;;;;;;;;;;6235290;28;20554;-67
2022/03/23 08:23:35;;;;;;;49.08;26.23;;;;;;;;;;6234222;28;20025;-67
2022/03/23 08:26:35;;;;;;;49.80;28.80;;;;;;;;;;6241709;28;20061;-67
2022/03/23 08:29:36;;;;;;;41.80;25.57;;;;;;;;;;6240609;28;20033;-67
2022/03/23 08:32:36;;;;;;;48.03;26.17;;;;;;;;;;6234624;28;20040;-67
2022/03/23 08:35:36;;;;;;;42.67;22.43;;;;;;;;;;6235709;28;20021;-66
2022/03/23 08:38:37;;;;;;;44.77;22.90;;;;;;;;;;6234837;28;20503;-66
2022/03/23 08:41:37;;;;;;;41.37;22.83;;;;;;;;;;6234889;28;20017;-66
2022/03/23 08:44:37;;;;;;;44.30;25.37;;;;;;;;;;6238828;28;20120;-66
2022/03/23 08:47:39;;;;;;;49.57;26.13;;;;;;;;;;6235095;28;20481;-66
2022/03/23 08:50:40;;;;;;;43.03;22.38;;;;;;;;;;6237521;28;20083;-66
2022/03/23 08:53:42;;;;;;;41.22;25.77;;;;;;;;;;6235837;28;20052;-67
2022/03/23 08:56:42;;;;;;;43.88;26.00;;;;;;;;;;6224272;28;20030;-67
2022/03/23 08:59:43;;;;;;;49.67;28.37;;;;;;;;;;6221483;28;20178;-66
2022/03/23 09:02:43;;;;;;;56.50;30.50;;;;;;;;;;6231856;28;20033;-67
2022/03/23 09:05:43;;;;;;;50.63;30.63;;;;;;;;;;6234272;28;20059;-67
2022/03/23 09:08:44;;;;;;;51.20;27.80;;;;;;;;;;6225802;28;20028;-66
2022/03/23 09:11:44;;;;;;;55.10;27.77;;;;;;;;;;6226674;28;20017;-67
2022/03/23 09:14:44;;;;;;;43.50;25.83;;;;;;;;;;6231522;28;20106;-67
2022/03/23 09:17:44;;;;;;;46.60;25.30;;;;;;;;;;6231016;28;20051;-68
2022/03/23 09:20:46;;;;;;;42.10;22.63;;;;;;;;;;6227643;28;20022;-67
2022/03/23 09:23:46;;;;;;;43.08;25.25;;;;;;;;;;6224756;28;20032;-67
2022/03/23 09:26:47;;;;;;;42.57;23.53;;;;;;;;;;6223394;28;20017;-67
2022/03/23 09:29:48;;;;;;;41.73;23.00;;;;;;;;;;6229026;28;20338;-67
2022/03/23 09:32:48;;;;;;;45.73;25.40;;;;;;;;;;6216667;28;20138;-67
2022/03/23 09:35:48;;;;;;;45.43;25.20;;;;;;;;;;6231541;28;20264;-67
2022/03/23 09:38:48;;;;;;;41.43;24.50;;;;;;;;;;6230508;28;20017;-67
2022/03/23 09:41:49;;;;;;;46.87;26.33;;;;;;;;;;6236483;28;20030;-67
2022/03/23 09:44:49;;;;;;;45.13;26.80;;;;;;;;;;6240257;28;20037;-67
2022/03/23 09:47:49;;;;;;;49.43;28.63;;;;;;;;;;6235222;28;20466;-67
2022/03/23 09:50:53;;;;;;;49.30;25.60;;;;;;;;;;6236407;28;20079;-67
2022/03/23 09:53:53;;;;;;;46.75;27.00;;;;;;;;;;6231572;28;20060;-67
2022/03/23 09:56:53;;;;;;;43.20;26.73;;;;;;;;;;6230707;28;20454;-67
2022/03/23 09:59:53;;;;;;;42.63;23.27;;;;;;;;;;6234884;28;20029;-67
2022/03/23 10:02:56;;;;;;;41.37;25.87;;;;;;;;;;6232774;28;20030;-68
2022/03/23 10:06:15;;;;;;;36.90;19.85;;;;;;;;;;6222753;28;20025;-67
2022/03/23 10:09:44;;;;;;;31.35;16.70;;;;;;;;;;6229938;28;20030;-67
2022/03/23 10:13:03;;;;;;;28.63;15.40;;;;;;;;;;6233595;28;20037;-67
2022/03/23 10:16:22;;;;;;;33.10;16.20;;;;;;;;;;6233093;28;20026;-67
2022/03/23 10:19:22;;;;;;;26.42;15.57;;;;;;;;;;6239714;28;20024;-67
2022/03/23 10:22:25;;;;;;;27.70;15.70;;;;;;;;;;6232403;28;20017;-67
2022/03/23 10:25:28;;;;;;;27.38;16.13;;;;;;;;;;6232429;28;20017;-67
2022/03/23 10:28:34;;;;;;;34.53;16.90;;;;;;;;;;6227906;28;20018;-67
2022/03/23 10:31:34;;;;;;;24.13;13.68;;;;;;;;;;6234667;28;20021;-68
2022/03/23 10:34:38;;;;;;;22.80;13.33;;;;;;;;;;6242749;28;20242;-67
2022/03/23 10:37:39;;;;;;;22.63;14.00;;;;;;;;;;6244362;28;20108;-67
2022/03/23 10:40:40;;;;;;;19.80;13.27;;;;;;;;;;6243322;28;20052;-67
2022/03/23 10:43:40;;;;;;;10.27;4.95;;;;;;;;;;6239991;28;20535;-69
2022/03/23 10:46:41;;;;;;;13.57;6.97;;;;;;;;;;6245232;28;20029;-68
2022/03/23 10:49:41;;;;;;;18.43;12.10;;;;;;;;;;6246171;28;20021;-67
2022/03/23 10:52:53;;;;;;;19.10;10.17;;;;;;;;;;6245289;28;20107;-67
2022/03/23 10:55:53;;;;;;;10.25;5.30;;;;;;;;;;6247790;28;20060;-67
2022/03/23 10:59:13;;;;;;;14.67;7.43;;;;;;;;;;6270209;28;20025;-67
2022/03/23 11:02:14;;;;;;;20.30;9.30;;;;;;;;;;6246551;28;20385;-67
2022/03/23 11:05:34;;;;;;;15.17;6.93;;;;;;;;;;6223394;28;20273;-67
2022/03/23 11:08:34;;;;;;;5.53;2.92;;;;;;;;;;6242869;28;20504;-68
2022/03/23 11:18:26;;;;;;;5.55;2.83;;;;;;;;;;6236839;28;20116;-67
2022/03/23 11:21:28;;;;;;;10.45;5.97;;;;;;;;;;6243783;28;20024;-67
2022/03/23 11:24:30;;;;;;;12.00;7.05;;;;;;;;;;6243794;28;20540;-67
2022/03/23 11:27:30;;;;;;;;;;;;;;;;;;6238552;28;20079;-67
2022/03/23 11:30:31;;;;;;;11.07;6.40;;;;;;;;;;6240626;28;19956;-68
2022/03/23 11:33:32;;;;;;;11.82;6.55;;;;;;;;;;6243179;28;20033;-68
2022/03/23 11:36:35;;;;;;;11.30;6.28;;;;;;;;;;6234705;28;20025;-68
2022/03/23 11:39:36;;;;;;;13.68;6.80;;;;;;;;;;6230480;28;20026;-68
2022/03/23 11:42:37;;;;;;;15.43;8.88;;;;;;;;;;6240644;28;20537;-68
2022/03/23 11:45:39;;;;;;;17.15;8.95;;;;;;;;;;6242991;28;20036;-68
2022/03/23 11:48:46;;;;;;;18.00;10.15;;;;;;;;;;6237160;28;20112;-68
2022/03/23 11:51:59;;;;;;;16.25;10.27;;;;;;;;;;6233145;28;20060;-68
2022/03/23 11:58:21;;;;;;;14.68;8.15;;;;;;;;;;6241769;28;20041;-68
2022/03/23 12:01:29;;;;;;;19.02;10.15;;;;;;;;;;6226587;28;20442;-68
2022/03/23 12:04:30;;;;;;;15.48;9.75;;;;;;;;;;6239061;28;20530;-68
2022/03/23 12:07:45;;;;;;;16.27;9.70;;;;;;;;;;6240079;28;20100;-67
2022/03/23 12:10:45;;;;;;;22.02;11.10;;;;;;;;;;6242701;28;20045;-67
2022/03/23 12:13:54;;;;;;;17.23;8.73;;;;;;;;;;6243137;28;20743;-68
2022/03/23 12:16:58;;;;;;;17.05;8.43;;;;;;;;;;6240400;28;20025;-68
2022/03/23 12:20:00;;;;;;;15.63;8.77;;;;;;;;;;6225334;28;20029;-67
2022/03/23 12:23:25;;;;;;;15.57;7.50;;;;;;;;;;6225522;28;20021;-67
2022/03/23 12:26:30;;;;;;;14.40;8.55;;;;;;;;;;6229599;28;20096;-67
2022/03/23 12:29:35;;;;;;;13.90;8.32;;;;;;;;;;6240879;28;20013;-67
2022/03/23 12:32:37;;;;;;;17.20;9.15;;;;;;;;;;6242097;28;20024;-67
2022/03/23 12:35:37;;;;;;;17.27;9.48;;;;;;;;;;6242056;28;20362;-68
2022/03/23 12:38:37;;;;;;;15.00;11.07;;;;;;;;;;6239662;28;20021;-67
2022/03/23 12:41:47;;;;;;;15.13;8.07;;;;;;;;;;6239741;28;20024;-68
2022/03/23 12:44:56;;;;;;;22.92;14.82;;;;;;;;;;6235677;28;20366;-68
2022/03/23 12:47:58;;;;;;;15.40;9.10;;;;;;;;;;6222455;28;20034;-67
2022/03/23 12:57:52;;;;;;;15.77;9.85;;;;;;;;;;6254866;28;20445;-67
2022/03/23 13:00:54;;;;;;;15.32;8.10;;;;;;;;;;6239895;28;20021;-67
2022/03/23 13:03:54;;;;;;;15.30;8.40;;;;;;;;;;6225217;28;20026;-67
2022/03/23 13:06:55;;;;;;;13.93;7.90;;;;;;;;;;6227989;28;20521;-67
2022/03/23 13:09:55;;;;;;;13.33;7.10;;;;;;;;;;6229948;28;20814;-67
2022/03/23 13:13:07;;;;;;;13.53;7.53;;;;;;;;;;6241235;28;20085;-67
2022/03/23 13:16:08;;;;;;;14.13;7.22;;;;;;;;;;6235794;28;20079;-67
2022/03/23 13:19:09;;;;;;;13.02;6.70;;;;;;;;;;6225712;28;20040;-68
2022/03/23 13:22:09;;;;;;;13.55;5.90;;;;;;;;;;6229384;28;20014;-67
2022/03/23 13:25:10;;;;;;;13.57;6.53;;;;;;;;;;6241255;28;20072;-68
2022/03/23 13:28:13;;;;;;;11.50;7.05;;;;;;;;;;6239110;28;20014;-68
2022/03/23 13:31:14;;;;;;;17.45;7.22;;;;;;;;;;6226531;28;20014;-67
2022/03/23 13:34:15;;;;;;;14.77;6.20;;;;;;;;;;6223596;28;20389;-67
2022/03/23 13:37:16;;;;;;;14.10;5.38;;;;;;;;;;6227951;28;20022;-67
2022/03/23 13:40:16;;;;;;;12.95;6.20;;;;;;;;;;6228032;28;20079;-67
2022/03/23 13:43:19;;;;;;;12.57;8.00;;;;;;;;;;6241044;28;20021;-67
2022/03/23 13:46:21;;;;;;;16.30;8.15;;;;;;;;;;6236166;28;20025;-68
2022/03/23 13:49:21;;;;;;;15.95;8.05;;;;;;;;;;6246403;28;20022;-68
2022/03/23 13:52:23;;;;;;;12.20;6.27;;;;;;;;;;6226215;28;20044;-68
2022/03/23 13:55:24;;;;;;;12.95;7.28;;;;;;;;;;6244558;28;20064;-68
2022/03/23 13:58:26;;;;;;;11.30;7.18;;;;;;;;;;6269806;28;20475;-67
2022/03/23 14:01:27;;;;;;;15.48;7.70;;;;;;;;;;6257851;28;20389;-67
2022/03/23 14:04:28;;;;;;;11.68;7.13;;;;;;;;;;6245546;28;20021;-68
2022/03/23 14:07:30;;;;;;;12.45;7.43;;;;;;;;;;6225564;28;20116;-67
2022/03/23 14:10:32;;;;;;;18.00;7.43;;;;;;;;;;6229228;28;20473;-67
2022/03/23 14:13:38;;;;;;;13.82;7.80;;;;;;;;;;6219649;28;20489;-67
2022/03/23 14:16:38;;;;;;;12.30;7.10;;;;;;;;;;6225036;28;20493;-68
2022/03/23 14:19:40;;;;;;;14.27;6.37;;;;;;;;;;6222342;28;20025;-68
2022/03/23 14:22:41;;;;;;;12.13;6.32;;;;;;;;;;6222795;28;20049;-67
2022/03/23 14:25:41;;;;;;;16.50;7.05;;;;;;;;;;6220814;28;20028;-67
2022/03/23 14:28:47;;;;;;;11.43;6.93;;;;;;;;;;6239839;28;20028;-67
2022/03/23 14:31:48;;;;;;;11.73;5.70;;;;;;;;;;6232864;28;20101;-68
2022/03/23 14:34:48;;;;;;;;;;;;;;;;;;6221654;28;20026;-67
2022/03/23 14:37:50;;;;;;;13.10;7.22;;;;;;;;;;6226717;28;19936;-68
2022/03/23 14:40:53;;;;;;;13.85;6.47;;;;;;;;;;6224536;28;20018;-68
2022/03/23 14:43:54;;;;;;;10.98;6.28;;;;;;;;;;6230704;28;20465;-68
2022/03/23 14:46:54;;;;;;;10.75;6.40;;;;;;;;;;6227994;28;20017;-67
2022/03/23 14:49:55;;;;;;;13.00;6.50;;;;;;;;;;6224665;28;20041;-67
2022/03/23 14:52:55;;;;;;;;;;;;;;;;;;6223981;28;20385;-67
2022/03/23 14:55:56;;;;;;;14.68;8.10;;;;;;;;;;6222564;28;20299;-67
2022/03/23 14:58:57;;;;;;;16.40;8.27;;;;;;;;;;6225288;28;20025;-67
2022/03/23 15:01:58;;;;;;;;;;;;;;;;;;6224716;28;20076;-68
2022/03/23 15:04:59;;;;;;;11.82;6.93;;;;;;;;;;6224974;28;19916;-68
2022/03/23 15:14:37;;;;;;;10.63;7.30;;;;;;;;;;6225658;28;20033;-69
2022/03/23 15:17:37;;;;;;;;;;;;;;;;;;6223899;28;20033;-69
2022/03/23 15:20:37;;;;;;;19.77;13.88;;;;;;;;;;6224025;28;19920;-69
2022/03/23 15:23:38;;;;;;;;;;;;;;;;;;6200134;28;20464;-68
2022/03/23 15:26:38;;;;;;;15.02;7.47;;;;;;;;;;6220946;28;20250;-68
2022/03/23 15:29:38;;;;;;;;;;;;;;;;;;6222242;28;20110;-68
2022/03/23 15:32:39;;;;;;;15.73;7.45;;;;;;;;;;6231852;28;20326;-68
2022/03/23 15:35:39;;;;;;;10.57;7.18;;;;;;;;;;6234881;28;20110;-68
2022/03/23 15:38:39;;;;;;;;;;;;;;;;;;6219346;28;20014;-68
2022/03/23 15:41:40;;;;;;;15.95;6.95;;;;;;;;;;6225366;28;19911;-68
2022/03/23 15:44:41;;;;;;;;;;;;;;;;;;6245254;28;20017;-68
2022/03/23 15:47:41;;;;;;;14.88;7.90;;;;;;;;;;6232098;28;20394;-68
2022/03/23 15:50:41;;;;;;;;;;;;;;;;;;6225379;28;20036;-68
2022/03/23 15:53:41;;;;;;;15.13;6.57;;;;;;;;;;6233928;28;19909;-68
2022/03/23 15:56:45;;;;;;;11.00;7.25;;;;;;;;;;6235608;28;20100;-68
2022/03/23 15:59:45;;;;;;;11.02;6.72;;;;;;;;;;6242925;28;20089;-68
2022/03/23 16:02:45;;;;;;;13.80;6.50;;;;;;;;;;6236525;28;20026;-68
2022/03/23 16:05:45;;;;;;;14.75;7.68;;;;;;;;;;6225464;28;20072;-68
2022/03/23 16:08:45;;;;;;;12.83;6.53;;;;;;;;;;6238052;28;20029;-68
2022/03/23 16:11:46;;;;;;;12.53;7.57;;;;;;;;;;6240781;28;20087;-68
2022/03/23 16:14:46;;;;;;;19.50;12.30;;;;;;;;;;6219259;28;20018;-68
2022/03/23 16:17:46;;;;;;;20.13;9.60;;;;;;;;;;6219083;28;20018;-68
2022/03/23 16:20:46;;;;;;;15.18;7.68;;;;;;;;;;6219428;28;20093;-68
2022/03/23 16:23:47;;;;;;;12.67;7.73;;;;;;;;;;6236340;28;20033;-68
2022/03/23 16:26:47;;;;;;;21.77;11.43;;;;;;;;;;6242943;28;20137;-68
2022/03/23 16:29:47;;;;;;;22.37;15.20;;;;;;;;;;6240136;28;20017;-68
2022/03/23 16:32:48;;;;;;;18.20;13.63;;;;;;;;;;6229895;28;20548;-67
2022/03/23 16:35:48;;;;;;;32.37;28.93;;;;;;;;;;6238287;28;20083;-67
2022/03/23 16:38:49;;;;;;;28.17;25.27;;;;;;;;;;6242733;28;20029;-67
2022/03/23 16:41:50;;;;;;;;;;;;;;;;;;6240078;28;20104;-68
2022/03/23 16:44:50;;;;;;;17.83;14.75;;;;;;;;;;6243312;28;19912;-67
2022/03/23 16:47:51;;;;;;;18.73;11.00;;;;;;;;;;6241925;28;20469;-67
2022/03/23 16:50:51;;;;;;;16.65;9.23;;;;;;;;;;6242814;28;20040;-67
2022/03/23 16:53:51;;;;;;;17.67;12.37;;;;;;;;;;6242234;28;20489;-67
2022/03/23 16:56:52;;;;;;;21.70;15.03;;;;;;;;;;6253344;28;20021;-67
2022/03/23 16:59:52;;;;;;;30.47;16.00;;;;;;;;;;6267321;28;20020;-67
2022/03/23 17:13:08;;;;;;;53.33;30.52;;;;;;;;;;6170443;28;20543;-67
2022/03/23 17:16:11;;;;;;;35.77;18.13;;;;;;;;;;6231346;28;20027;-67
2022/03/23 17:19:11;;;;;;;21.60;10.38;;;;;;;;;;6232590;28;20036;-67
2022/03/23 17:22:12;;;;;;;21.63;8.37;;;;;;;;;;6242511;28;20492;-67
2022/03/23 17:25:13;;;;;;;18.35;7.93;;;;;;;;;;6240403;28;20052;-67
2022/03/23 17:28:13;;;;;;;25.80;10.00;;;;;;;;;;6241255;28;20010;-67
2022/03/23 17:31:14;;;;;;;21.30;9.07;;;;;;;;;;6246467;28;20032;-67
2022/03/23 17:34:14;;;;;;;24.23;12.67;;;;;;;;;;6246372;28;20025;-67
2022/03/23 17:37:15;;;;;;;23.43;10.53;;;;;;;;;;6226745;28;20470;-67
2022/03/23 17:40:15;;;;;;;67.28;30.35;;;;;;;;;;6227798;28;20047;-67
2022/03/23 17:43:18;;;;;;;42.65;21.17;;;;;;;;;;6230266;28;20389;-67
2022/03/23 17:46:18;;;;;;;90.20;47.72;;;;;;;;;;6235222;28;20176;-67
2022/03/23 17:49:19;;;;;;;35.13;16.10;;;;;;;;;;6232265;28;20052;-67
2022/03/23 17:52:19;;;;;;;36.00;18.63;;;;;;;;;;6245063;28;20283;-67
2022/03/23 17:55:19;;;;;;;37.00;20.05;;;;;;;;;;6242807;28;20046;-66
2022/03/23 17:58:19;;;;;;;37.20;17.17;;;;;;;;;;6237202;28;20029;-66
2022/03/23 18:01:20;;;;;;;47.53;21.50;;;;;;;;;;6237245;28;20040;-66
2022/03/23 18:04:20;;;;;;;42.92;20.15;;;;;;;;;;6227623;28;20293;-66
2022/03/23 18:07:20;;;;;;;48.20;22.10;;;;;;;;;;6246665;28;20504;-66
2022/03/23 18:10:21;;;;;;;50.95;22.45;;;;;;;;;;6237771;28;20026;-66
2022/03/23 18:13:24;;;;;;;60.30;27.33;;;;;;;;;;6233781;28;20428;-67
2022/03/23 18:16:24;;;;;;;76.05;34.80;;;;;;;;;;6242800;28;20457;-66
2022/03/23 18:19:24;;;;;;;51.70;25.13;;;;;;;;;;6228798;28;20018;-67
2022/03/23 18:22:24;;;;;;;54.92;22.15;;;;;;;;;;6223763;28;20469;-66
2022/03/23 18:25:25;;;;;;;85.18;34.45;;;;;;;;;;6238859;28;20033;-66
2022/03/23 18:28:26;;;;;;;58.30;24.25;;;;;;;;;;6243976;28;20032;-66